Nearby METAR Reports

 

EGEO - Oban, United Kingdom
Distance from station: SSW 18mi, 30km
Updated: 19/08/2018 16:50
NOT Current
Few Clouds
Few Clouds
 Wind from W
Wind: W 12 mph , 19 km/h
Temperature: 17°C
Dew Point: 12°C
Humidity: 73%
Barometer: 1016 hPa
Clouds: Few Clouds
Visibility: 6 miles , 10 km
Cloud details: Few Clouds 1402 m
2018/08/19 15:50 EGEO 191550Z 27010KT 9999 FEW046 17/12 Q1016
EGPU - Tiree, United Kingdom
Distance from station: WSW 64mi, 103km
Updated: 19/08/2018 17:50
Clear
Clear
 Wind from NNW
Wind: NNW 14 mph , 22 km/h
Temperature: 15°C
Dew Point: 11°C
Humidity: 77%
Barometer: 1017 hPa
Clouds: Clear
Visibility: 6 miles , 10 km
2018/08/19 16:50 EGPU 191650Z AUTO 34012KT 9999 NCD 15/11 Q1017
EGPF - Glasgow, United Kingdom
Distance from station: SSE 66mi, 107km
Updated: 19/08/2018 17:50
Overcast
Overcast
 Wind from W
Wind: W 9 mph , 15 km/h
Temperature: 17°C
Dew Point: 12°C
Humidity: 73%
Barometer: 1016 hPa
Clouds: Overcast
Visibility: 6 miles , 10 km
Cloud details: Overcast 1372 m
2018/08/19 16:50 EGPF 191650Z AUTO 26008KT 9999 OVC045 17/12 Q1016
 
EGPE - Inverness, United Kingdom
Distance from station: NE 71mi, 114km
Updated: 19/08/2018 17:50
Few Clouds
Few Clouds
 Wind from NE
Wind: NE 6 mph , 9 km/h
Temperature: 19°C
Dew Point: 9°C
Humidity: 52%
Barometer: 1017 hPa
Clouds: Few Clouds
Visibility: 6 miles , 10 km
Cloud details: Few Clouds 1219 m
2018/08/19 16:50 EGPE 191650Z 04005KT 350V070 9999 FEW040 19/09 Q1017
EGPI - Islay/Port Ellen, United Kingdom
Distance from station: SSW 81mi, 131km
Updated: 19/08/2018 17:50
Few Clouds
Few Clouds
 Wind from WNW
Wind: WNW 13 mph , 20 km/h
Temperature: 16°C
Dew Point: 12°C
Humidity: 77%
Barometer: 1018 hPa
Clouds: Few Clouds
Visibility: 6 miles , 10 km
Cloud details: Few Clouds 549 m
2018/08/19 16:50 EGPI 191650Z AUTO 30011KT 9999 FEW018/// 16/12 Q1018
EGPN - Dundee/Riverside, United Kingdom
Distance from station: E 86mi, 138km
Updated: 19/08/2018 17:50
Drizzle, Overcast
Drizzle, Overcast
 Wind from E
Wind: E 6 mph , 9 km/h
Temperature: 14°C
Dew Point: 14°C
Humidity: 100%
Barometer: 1016 hPa
Summary: Drizzle
Clouds: Overcast
Visibility: 2 miles , 4 km
Cloud details: Overcast 244 m
2018/08/19 16:50 EGPN 191650Z 10005KT 3500 DZ OVC008 14/14 Q1016
 
EGPK - Prestwick, United Kingdom
Distance from station: SSE 88mi, 141km
Updated: 19/08/2018 17:50
Partly cloudy
Partly cloudy
 Wind from WNW
Wind: WNW 12 mph , 19 km/h
Temperature: 17°C
Dew Point: 12°C
Humidity: 73%
Barometer: 1017 hPa
Clouds: Partly cloudy
Visibility: 6 miles , 10 km
Cloud details: Partly cloudy 762 m
2018/08/19 16:50 EGPK 191650Z 30010KT 9999 SCT025 17/12 Q1017
EGPH - Edinburgh, United Kingdom
Distance from station: SE 89mi, 143km
Updated: 19/08/2018 17:50
Mist, Overcast
Mist, Overcast
 Wind from ENE
Wind: ENE 8 mph , 13 km/h
Temperature: 14°C
Dew Point: 13°C
Humidity: 94%
Barometer: 1016 hPa
Summary: Mist
Clouds: Overcast
Visibility: 3 miles , 4 km
Cloud details: Overcast 213 m
2018/08/19 16:50 EGPH 191650Z 06007KT 4400 BR OVC007 14/13 Q1016
EGQK - RAF Kinloss, United Kingdom
Distance from station: NE 90mi, 144km
Updated: 19/08/2018 17:50
Few Clouds
Few Clouds
 Wind from NNE
Wind: NNE 7 mph , 11 km/h
Temperature: 17°C
Dew Point: 9°C
Humidity: 59%
Barometer: 1016 hPa
Clouds: Few Clouds
Visibility: 6 miles , 10 km
Cloud details: Few Clouds 3048 m
2018/08/19 16:50 EGQK 191650Z AUTO 03006KT 9999 FEW100/// 17/09 Q1016
 
EGEC - Campbeltown, United Kingdom
Distance from station: S 90mi, 145km
Updated: 19/08/2018 17:50
Few Clouds
Few Clouds
 Wind from W
Wind: W 15 mph , 24 km/h
Temperature: 15°C
Dew Point: 13°C
Humidity: 88%
Barometer: 1017 hPa
Clouds: Few Clouds
Visibility: 6 miles , 10 km
Cloud details: Few Clouds 1036 m
2018/08/19 16:50 EGEC 191650Z 28013KT 9999 FEW034 15/13 Q1017
EGQA - Tain Range, United Kingdom
Distance from station: NNE 91mi, 146km
Updated: 10/08/2018 10:50
NOT Current
Partly cloudy
Partly cloudy
 Wind from NW
Wind: NW 6 mph , 9 km/h
Clouds: Partly cloudy
Visibility: 6 miles , 10 km
Cloud details: Few Clouds 671 m
Partly cloudy 1067 m
2018/08/10 09:50 EGQA 100950Z 31005KT 9999 FEW022 SCT035 14/// Q1012 BLU
EGQL - RAF Leuchars, United Kingdom
Distance from station: ESE 93mi, 149km
Updated: 19/08/2018 17:50
Light rain, Mostly cloudy
Light rain, Mostly cloudy
 Wind from SE
Wind: SE 7 mph , 11 km/h
Temperature: 13°C
Dew Point: 12°C
Humidity: 94%
Barometer: 1016 hPa
Summary: Light rain
Clouds: Mostly cloudy
Visibility: 3 miles , 5 km
Cloud details: Few Clouds 274 m
Mostly cloudy 396 m
Mostly cloudy 732 m
2018/08/19 16:50 EGQL 191650Z 13006KT 4500 -RA FEW009 BKN013 BKN024 13/12 Q1016 GRN
 
EGPL - Benbecula, United Kingdom
Distance from station: WNW 96mi, 154km
Updated: 19/08/2018 17:50
Few Clouds
Few Clouds
 Wind from NW
Wind: NW 12 mph , 19 km/h
Temperature: 15°C
Dew Point: 11°C
Humidity: 77%
Barometer: 1017 hPa
Clouds: Few Clouds
Visibility: 6 miles , 10 km
Cloud details: Few Clouds 762 m
2018/08/19 16:50 EGPL 191650Z 32010KT 9999 FEW025 15/11 Q1017
EGQS - RAF Lossiemouth, United Kingdom
Distance from station: NE 99mi, 160km
Updated: 19/08/2018 17:50
Partly cloudy
Partly cloudy
 Wind from NE
Wind: NE 5 mph , 7 km/h
Temperature: 16°C
Dew Point: 9°C
Humidity: 63%
Barometer: 1016 hPa
Clouds: Partly cloudy
Visibility: 6 miles , 10 km
Cloud details: Few Clouds 914 m
Partly cloudy 3048 m
2018/08/19 16:50 EGQS 191650Z 04004KT 9999 FEW030 SCT100 16/09 Q1016 BLU
EGPO - Stornoway, United Kingdom
Distance from station: NNW 111mi, 179km
Updated: 19/08/2018 17:50
Mostly cloudy
Mostly cloudy
 Wind from NNW
Wind: NNW 9 mph , 15 km/h
Temperature: 15°C
Dew Point: 9°C
Humidity: 68%
Barometer: 1017 hPa
Clouds: Mostly cloudy
Visibility: 6 miles , 10 km
Cloud details: Few Clouds 762 m
Mostly cloudy 1128 m
2018/08/19 16:50 EGPO 191650Z 34008KT 9999 FEW025 BKN037 15/09 Q1017
 
EGPD - Aberdeen/Dyce, United Kingdom
Distance from station: ENE 118mi, 190km
Updated: 19/08/2018 17:50
Mostly cloudy
Mostly cloudy
 Wind from ENE
Wind: ENE 6 mph , 9 km/h
Temperature: 14°C
Dew Point: 11°C
Humidity: 82%
Barometer: 1016 hPa
Clouds: Mostly cloudy
Visibility: 6 miles , 10 km
Cloud details: Mostly cloudy 640 m
Mostly cloudy 914 m
2018/08/19 16:50 EGPD 191650Z AUTO 07005KT 020V100 9999 BKN021 BKN030 14/11 Q1016 NOSIG
EGAE - Eglinton/Londond, United Kingdom
Distance from station: SSW 138mi, 222km
Updated: 19/08/2018 17:50
Mostly cloudy
Mostly cloudy
 Wind from ENE
Wind: ENE 5 mph , 7 km/h
Temperature: 17°C
Dew Point: 13°C
Humidity: 77%
Barometer: 1018 hPa
Clouds: Mostly cloudy
Visibility: 6 miles , 10 km
Cloud details: Few Clouds 457 m
Mostly cloudy 640 m
2018/08/19 16:50 EGAE 191650Z 06004KT 9999 FEW015 BKN021 17/13 Q1018
EGPC - Wick, United Kingdom
Distance from station: NNE 144mi, 232km
Updated: 19/08/2018 17:50
Partly cloudy
Partly cloudy
 Wind from ESE
Wind: ESE 2 mph , 4 km/h
Temperature: 14°C
Dew Point: 11°C
Humidity: 82%
Barometer: 1017 hPa
Clouds: Partly cloudy
Visibility: 6 miles , 10 km
Cloud details: Partly cloudy 1128 m
2018/08/19 16:50 EGPC 191650Z AUTO 12002KT 9999 SCT037/// 14/11 Q1017

Metar display script from Saratoga-Weather.org